Time;durP1;ratioP1;P1;durP2;ratioP2;P2;SDS_P1;SDS_P2;PMS_P1;PMS_P2;Temp;Humidity;BMP_temperature;BMP_pressure;BME280_temperature;BME280_humidity;BME280_pressure;Samples;Min_cycle;Max_cycle;Signal;HPM_P1;HPM_P2
2022/11/02 00:00:26;;;;;;;;;11.00;9.75;;;;;10.69;82.79;98860.59;4903448;28;102184;-72
2022/11/02 00:02:53;;;;;;;;;6.75;6.00;;;;;10.67;82.83;98865.34;4903893;28;109166;-72
2022/11/02 00:05:24;;;;;;;;;8.25;8.00;;;;;10.66;82.75;98865.56;4896494;28;102047;-73
2022/11/02 00:07:52;;;;;;;;;6.50;6.50;;;;;10.65;82.55;98864.72;4901592;28;102006;-73
2022/11/02 00:10:22;;;;;;;;;4.00;4.00;;;;;10.65;82.78;98866.59;4903907;28;102072;-73
2022/11/02 00:12:50;;;;;;;;;6.00;5.50;;;;;10.65;82.82;98866.59;4897318;28;102970;-72
2022/11/02 00:15:18;;;;;;;;;9.75;5.50;;;;;10.61;82.84;98858.03;4896252;28;104991;-72
2022/11/02 00:17:52;;;;;;;;;8.50;6.75;;;;;10.63;82.77;98866.78;4895394;28;102472;-72
2022/11/02 00:20:20;;;;;;;;;8.25;7.00;;;;;10.62;82.41;98867.81;4895038;28;102535;-73
2022/11/02 00:22:51;;;;;;;;;8.00;5.50;;;;;10.39;82.65;98829.34;4901538;28;103086;-72
2022/11/02 00:25:21;;;;;;;;;5.00;4.25;;;;;10.60;82.40;98861.75;4896528;28;102655;-72
2022/11/02 00:27:48;;;;;;;;;4.00;3.00;;;;;10.58;82.26;98869.22;4899727;28;104063;-72
2022/11/02 00:30:16;;;;;;;;;3.00;3.00;;;;;10.55;82.71;98858.78;4899950;28;102176;-72
2022/11/02 00:32:44;;;;;;;;;4.50;3.00;;;;;10.54;82.57;98876.03;4894110;28;104059;-72
2022/11/02 00:35:12;;;;;;;;;4.00;2.50;;;;;10.39;82.64;98848.28;4895331;28;102325;-73
2022/11/02 00:37:39;;;;;;;;;4.00;4.00;;;;;10.48;82.39;98866.03;4898060;28;102075;-73
2022/11/02 00:40:07;;;;;;;;;3.00;2.00;;;;;10.45;82.39;98874.50;4903729;28;103932;-72
2022/11/02 00:42:34;;;;;;;;;1.25;1.00;;;;;10.12;82.66;98836.34;4900250;28;104021;-73
2022/11/02 00:45:01;;;;;;;;;4.25;3.00;;;;;10.38;82.82;98879.03;4907249;28;102414;-73
2022/11/02 00:47:29;;;;;;;;;4.25;3.25;;;;;10.34;83.25;98880.44;4897451;28;103748;-72
2022/11/02 00:49:56;;;;;;;;;3.00;3.00;;;;;10.29;83.09;98875.63;4895404;28;102455;-73
2022/11/02 00:52:23;;;;;;;;;2.00;1.00;;;;;10.27;83.46;98876.81;4896160;28;110647;-73
2022/11/02 00:54:51;;;;;;;;;2.75;2.00;;;;;10.26;83.13;98872.47;4898292;28;102359;-73
2022/11/02 00:57:18;;;;;;;;;2.25;2.25;;;;;10.24;83.85;98877.22;4898281;28;102110;-73
2022/11/02 00:59:45;;;;;;;;;2.50;2.00;;;;;10.22;83.63;98877.38;4897579;28;102279;-73
2022/11/02 01:02:13;;;;;;;;;5.00;4.75;;;;;10.14;83.80;98871.25;4898105;28;102967;-72
2022/11/02 01:04:41;;;;;;;;;7.00;6.00;;;;;10.19;83.19;98876.94;4896177;28;102480;-73
2022/11/02 01:07:08;;;;;;;;;1.75;0.75;;;;;10.17;83.15;98877.16;4902675;28;102214;-73
2022/11/02 01:09:35;;;;;;;;;2.25;2.25;;;;;10.16;83.51;98875.47;4898913;28;101971;-73
2022/11/02 01:12:04;;;;;;;;;4.25;4.00;;;;;10.15;83.88;98872.94;4896925;28;103070;-73
2022/11/02 01:14:31;;;;;;;;;1.00;0.00;;;;;10.14;84.05;98873.94;4899506;28;102357;-73
2022/11/02 01:16:59;;;;;;;;;0.00;0.00;;;;;10.14;83.80;98877.50;4876992;28;102139;-73
2022/11/02 01:19:26;;;;;;;;;3.00;2.75;;;;;10.13;83.72;98873.09;4899480;28;102380;-73
2022/11/02 01:21:53;;;;;;;;;3.00;3.00;;;;;10.11;83.26;98871.63;4898823;28;104020;-73
2022/11/02 01:24:20;;;;;;;;;1.75;1.75;;;;;10.12;83.75;98879.56;4888995;28;102200;-73
2022/11/02 01:26:52;;;;;;;;;1.50;0.75;;;;;10.13;83.73;98885.81;4894623;28;103533;-73
2022/11/02 01:29:19;;;;;;;;;3.50;3.00;;;;;10.07;84.11;98868.50;4895551;28;103888;-73
2022/11/02 01:31:47;;;;;;;;;3.25;3.25;;;;;10.16;83.95;98885.44;4897892;28;103972;-73
2022/11/02 01:34:14;;;;;;;;;2.50;2.25;;;;;10.19;84.25;98882.34;4891778;28;102386;-73
2022/11/02 01:36:44;;;;;;;;;0.25;0.25;;;;;10.23;84.03;98889.03;4896246;28;102701;-73
2022/11/02 01:39:12;;;;;;;;;2.75;2.25;;;;;10.18;84.27;98868.00;4900801;28;104002;-72
2022/11/02 01:41:40;;;;;;;;;1.00;1.00;;;;;10.29;83.85;98886.41;4892032;28;104002;-73
2022/11/02 01:44:30;;;;;;;;;2.75;2.75;;;;;10.32;83.76;98897.84;4900065;28;102479;-72
2022/11/02 01:47:26;;;;;;;;;1.75;1.50;;;;;10.32;83.56;98885.19;4901287;28;104309;-73
2022/11/02 01:50:09;;;;;;;;;1.00;1.00;;;;;10.31;83.30;98888.94;4899675;28;102572;-72
2022/11/02 01:52:37;;;;;;;;;5.00;4.25;;;;;10.27;83.06;98883.06;4892158;28;107627;-72
2022/11/02 01:55:28;;;;;;;;;2.00;1.50;;;;;10.25;83.16;98868.09;4903272;28;102476;-72
2022/11/02 01:58:03;;;;;;;;;3.50;2.75;;;;;10.21;83.24;98872.19;4876321;28;102351;-73
2022/11/02 02:00:30;;;;;;;;;5.00;5.00;;;;;10.17;82.56;98865.50;4876398;28;102560;-72
2022/11/02 02:03:17;;;;;;;;;1.50;1.00;;;;;10.12;82.54;98876.03;4886252;28;104023;-73
2022/11/02 02:05:54;;;;;;;;;3.25;2.75;;;;;10.07;82.98;98868.50;4874191;28;102258;-73
2022/11/02 02:08:32;;;;;;;;;2.00;1.00;;;;;10.01;83.45;98879.22;4882264;28;101904;-72
2022/11/02 02:11:43;;;;;;;;;3.75;2.00;;;;;10.01;83.37;98871.09;4874798;28;102253;-72
2022/11/02 02:14:29;;;;;;;;;2.50;2.50;;;;;9.95;83.38;98871.88;4881104;28;108122;-72
2022/11/02 02:17:45;;;;;;;;;1.75;1.75;;;;;9.91;83.23;98874.09;4877841;28;102393;-72
2022/11/02 02:20:43;;;;;;;;;3.00;2.00;;;;;9.85;83.18;98873.03;4876311;28;103048;-72
2022/11/02 02:23:52;;;;;;;;;3.50;3.50;;;;;9.80;83.06;98874.63;4884442;28;103991;-72
2022/11/02 02:26:55;;;;;;;;;3.00;2.50;;;;;9.73;83.27;98871.81;4881416;28;107788;-71
2022/11/02 02:29:32;;;;;;;;;3.25;3.00;;;;;9.68;83.88;98876.94;4873418;28;102537;-72
2022/11/02 02:32:12;;;;;;;;;3.50;3.25;;;;;9.64;83.49;98875.66;4878027;28;102091;-72
2022/11/02 02:35:14;;;;;;;;;5.00;4.00;;;;;9.53;83.00;98870.75;4876780;28;102514;-72
2022/11/02 02:37:46;;;;;;;;;2.75;2.75;;;;;9.58;83.71;98884.53;4876790;28;108920;-72
2022/11/02 02:40:40;;;;;;;;;4.25;4.00;;;;;9.54;83.88;98885.91;4879492;28;103581;-72
2022/11/02 02:43:12;;;;;;;;;4.75;4.00;;;;;9.50;83.68;98887.28;4869393;28;102259;-72
2022/11/02 02:45:43;;;;;;;;;2.00;2.00;;;;;9.47;84.09;98884.97;4883860;28;102022;-72
2022/11/02 02:48:18;;;;;;;;;6.00;5.00;;;;;9.44;83.91;98892.63;4882734;28;103491;-74
2022/11/02 02:50:53;;;;;;;;;5.00;4.00;;;;;9.40;84.18;98886.75;4885486;28;102112;-72
2022/11/02 02:53:27;;;;;;;;;4.50;4.25;;;;;9.37;83.38;98889.81;4889537;28;102332;-72
2022/11/02 02:55:58;;;;;;;;;4.25;4.00;;;;;9.35;84.32;98891.88;4881237;28;103622;-72
2022/11/02 02:58:31;;;;;;;;;3.75;3.25;;;;;9.30;84.16;98889.75;4892472;28;103625;-72
2022/11/02 03:01:00;;;;;;;;;2.75;2.00;;;;;9.28;84.33;98890.94;4899284;28;102317;-72
2022/11/02 03:03:29;;;;;;;;;3.50;3.50;;;;;9.24;84.62;98885.06;4903465;28;102809;-72
2022/11/02 03:06:08;;;;;;;;;1.00;1.00;;;;;9.19;85.09;98892.03;4888766;28;102096;-72
2022/11/02 03:08:38;;;;;;;;;4.75;4.50;;;;;9.16;85.01;98887.03;4899036;28;109053;-72
2022/11/02 03:11:18;;;;;;;;;3.50;3.50;;;;;9.13;84.70;98876.63;4900780;28;103211;-71
2022/11/02 03:14:05;;;;;;;;;2.75;2.50;;;;;9.12;84.84;98883.88;4887125;28;101969;-72
2022/11/02 03:16:54;;;;;;;;;2.00;2.00;;;;;9.12;85.52;98885.72;4902935;28;102175;-72
2022/11/02 03:19:40;;;;;;;;;6.00;6.00;;;;;9.13;85.41;98884.72;4904128;28;108888;-72
2022/11/02 03:22:43;;;;;;;;;3.50;3.00;;;;;9.07;85.84;98880.03;4903422;28;102167;-73
2022/11/02 03:25:39;;;;;;;;;4.00;4.00;;;;;9.15;85.49;98890.75;4908409;28;102357;-73
2022/11/02 03:28:17;;;;;;;;;3.00;2.75;;;;;9.16;85.62;98903.22;4839409;28;102345;-72
2022/11/02 03:30:51;;;;;;;;;5.25;4.00;;;;;9.15;84.59;98890.75;4905807;28;103947;-73
2022/11/02 03:33:33;;;;;;;;;1.00;0.75;;;;;9.13;85.84;98909.00;4895882;28;102097;-73
2022/11/02 03:36:38;;;;;;;;;12.75;9.75;;;;;9.02;86.71;98912.13;4901852;28;102417;-73
2022/11/02 03:39:08;;;;;;;;;4.25;4.00;;;;;9.04;86.49;98910.94;4853574;28;102957;-72
2022/11/02 03:41:39;;;;;;;;;4.00;4.00;;;;;9.05;85.80;98907.19;4878979;28;104162;-72
2022/11/02 03:44:10;;;;;;;;;7.75;7.25;;;;;9.06;85.47;98908.88;4904456;28;102522;-73
2022/11/02 03:46:40;;;;;;;;;5.75;4.50;;;;;9.05;85.12;98911.78;4908245;28;102287;-72
2022/11/02 03:49:12;;;;;;;;;2.00;2.00;;;;;9.07;85.46;98917.81;4900125;28;102474;-72
2022/11/02 03:51:42;;;;;;;;;3.50;2.75;;;;;9.07;85.41;98910.56;4903705;28;104630;-73
2022/11/02 03:54:21;;;;;;;;;0.50;0.50;;;;;9.09;86.02;98910.38;4894985;28;102401;-73
2022/11/02 03:56:52;;;;;;;;;2.00;2.00;;;;;9.12;85.89;98912.69;4896140;28;103704;-72
2022/11/02 03:59:19;;;;;;;;;1.75;1.00;;;;;9.13;86.04;98909.00;4898565;28;101969;-72
2022/11/02 04:01:49;;;;;;;;;8.25;8.00;;;;;9.13;86.57;98909.00;4897289;28;104018;-72
2022/11/02 04:04:17;;;;;;;;;8.25;5.00;;;;;9.15;86.42;98912.31;4886450;28;103206;-72
2022/11/02 04:06:47;;;;;;;;;5.75;5.00;;;;;9.08;86.12;98903.31;4898560;28;101822;-72
2022/11/02 04:09:14;;;;;;;;;4.50;3.50;;;;;9.15;86.60;98917.72;4897258;28;106039;-72
2022/11/02 04:14:39;;;;;;;;;3.75;3.75;;;;;9.15;86.55;98913.16;4916686;28;103398;-72
2022/11/02 04:19:59;;;;;;;;;1.50;1.00;;;;;9.11;86.32;98916.41;4921663;28;102160;-72
2022/11/02 04:25:14;;;;;;;;;5.50;5.50;;;;;9.08;85.44;98923.03;4916326;28;102454;-72
2022/11/02 04:27:42;;;;;;;;;4.00;3.75;;;;;9.03;85.44;98913.81;4924719;28;102320;-73
2022/11/02 04:30:09;;;;;;;;;4.00;4.00;;;;;9.05;85.87;98914.47;4916370;28;103777;-72
2022/11/02 04:35:23;;;;;;;;;4.75;4.00;;;;;9.01;85.59;98919.38;4918154;28;102046;-73
2022/11/02 04:40:36;;;;;;;;;6.50;4.00;;;;;8.90;86.60;98931.47;4915318;28;102061;-72
2022/11/02 04:43:03;;;;;;;;;8.25;7.00;;;;;8.90;88.00;98925.22;4923982;28;103028;-73
2022/11/02 04:45:30;;;;;;;;;5.75;3.25;;;;;8.92;87.09;98932.09;4919488;28;102221;-73
2022/11/02 04:48:02;;;;;;;;;5.75;4.75;;;;;8.95;87.42;98937.16;4916938;28;102446;-73
2022/11/02 04:50:30;;;;;;;;;6.50;5.00;;;;;8.97;86.88;98926.16;4920458;28;102930;-73
2022/11/02 04:52:59;;;;;;;;;4.00;3.00;;;;;8.98;87.08;98921.59;4915515;28;103984;-73
2022/11/02 04:55:28;;;;;;;;;4.00;2.50;;;;;9.00;87.18;98930.34;4917066;28;102066;-73
2022/11/02 04:57:55;;;;;;;;;5.25;4.00;;;;;8.99;86.74;98929.50;4917067;28;101922;-72
2022/11/02 05:00:22;;;;;;;;;2.00;1.00;;;;;8.99;86.50;98925.97;4919334;28;102380;-73
2022/11/02 05:02:50;;;;;;;;;4.25;2.50;;;;;8.95;85.93;98928.22;4919176;28;104107;-73
2022/11/02 05:05:17;;;;;;;;;3.00;2.00;;;;;8.91;86.46;98937.69;4913236;28;102367;-73
2022/11/02 05:07:44;;;;;;;;;6.75;5.25;;;;;8.89;86.11;98932.47;4919017;28;102206;-73
2022/11/02 05:10:11;;;;;;;;;5.75;5.00;;;;;8.89;85.97;98928.94;4916399;28;102559;-73
2022/11/02 05:12:38;;;;;;;;;2.00;2.00;;;;;8.87;85.90;98931.78;4911489;28;103912;-73
2022/11/02 05:15:05;;;;;;;;;4.00;4.00;;;;;8.85;85.90;98933.84;4913161;28;103893;-73
2022/11/02 05:17:32;;;;;;;;;4.50;4.50;;;;;8.79;86.30;98945.34;4921187;28;102464;-73
2022/11/02 05:19:59;;;;;;;;;5.00;4.25;;;;;8.71;86.30;98941.88;4917867;28;102161;-72
2022/11/02 05:22:26;;;;;;;;;5.50;4.75;;;;;8.70;86.16;98951.84;4915679;28;103679;-73
2022/11/02 05:24:53;;;;;;;;;9.50;8.00;;;;;8.59;87.25;98954.13;4920318;28;102348;-73
2022/11/02 05:27:20;;;;;;;;;4.50;3.75;;;;;8.56;86.71;98949.91;4917132;28;102227;-75
2022/11/02 05:29:47;;;;;;;;;5.75;4.25;;;;;8.56;86.79;98960.69;4915852;28;102857;-74
2022/11/02 05:32:14;;;;;;;;;6.75;5.25;;;;;8.54;86.85;98964.59;4916959;28;103974;-74
2022/11/02 05:34:41;;;;;;;;;3.75;3.25;;;;;8.53;86.30;98966.44;4915284;28;102160;-72
2022/11/02 05:37:08;;;;;;;;;4.00;4.00;;;;;8.49;86.64;98960.59;4915112;28;101910;-73
2022/11/02 05:39:36;;;;;;;;;5.25;4.25;;;;;8.48;86.73;98958.91;4920794;28;102457;-73
2022/11/02 05:42:03;;;;;;;;;4.50;4.25;;;;;8.44;86.37;98962.13;4916749;28;103971;-73
2022/11/02 05:44:30;;;;;;;;;6.00;4.00;;;;;8.45;86.13;98958.44;4919050;28;102038;-72
2022/11/02 05:46:57;;;;;;;;;2.25;2.25;;;;;8.46;86.56;98965.50;4921019;28;102276;-75
2022/11/02 05:49:24;;;;;;;;;4.00;2.25;;;;;8.48;87.33;98967.00;4925542;28;102379;-76
2022/11/02 05:51:51;;;;;;;;;11.75;9.75;;;;;8.44;89.21;98962.13;4924380;28;104027;-76
2022/11/02 05:54:18;;;;;;;;;10.25;6.50;;;;;8.52;89.16;98962.06;4916391;28;102222;-74
2022/11/02 05:56:45;;;;;;;;;5.00;3.50;;;;;8.60;89.02;98962.00;4914957;28;102179;-73
2022/11/02 05:59:12;;;;;;;;;3.75;2.75;;;;;8.69;88.98;98966.31;4916184;28;102279;-73
2022/11/02 06:01:39;;;;;;;;;2.00;1.00;;;;;8.77;89.04;98963.59;4910081;28;104103;-73
2022/11/02 06:04:06;;;;;;;;;3.75;2.50;;;;;8.86;89.36;98967.91;4921817;28;103133;-73
2022/11/02 06:06:34;;;;;;;;;2.25;1.00;;;;;9.00;89.68;98968.13;4918967;28;102452;-74
2022/11/02 06:09:01;;;;;;;;;3.00;2.00;;;;;9.09;89.51;98956.22;4919976;28;103387;-74
2022/11/02 06:11:32;;;;;;;;;4.25;4.25;;;;;9.17;90.32;98964.25;4899413;28;106263;-73
2022/11/02 06:14:00;;;;;;;;;5.25;3.75;;;;;9.24;89.79;98959.78;4911887;28;101915;-74
2022/11/02 06:16:27;;;;;;;;;2.75;2.50;;;;;9.37;89.72;98968.06;4927202;28;102037;-73
2022/11/02 06:18:54;;;;;;;;;3.00;2.00;;;;;9.45;89.85;98967.19;4917468;28;101993;-73
2022/11/02 06:21:21;;;;;;;;;3.00;2.00;;;;;9.53;89.11;98964.38;4914362;28;104020;-74
2022/11/02 06:23:49;;;;;;;;;2.00;1.25;;;;;9.60;88.90;98957.19;4920306;28;102230;-74
2022/11/02 06:26:16;;;;;;;;;2.00;2.00;;;;;9.65;89.27;98961.03;4923322;28;102372;-74
2022/11/02 06:28:43;;;;;;;;;5.75;3.75;;;;;9.70;88.85;98965.88;4921494;28;103897;-74
2022/11/02 06:31:10;;;;;;;;;2.00;2.00;;;;;9.77;88.56;98962.22;4919946;28;103982;-73
2022/11/02 06:33:37;;;;;;;;;1.00;1.00;;;;;9.82;88.62;98958.97;4926010;28;104987;-73
2022/11/02 06:36:05;;;;;;;;;2.00;2.00;;;;;9.88;88.49;98960.09;4926242;28;102775;-70
2022/11/02 06:38:32;;;;;;;;;3.00;2.75;;;;;9.90;88.44;98949.94;4923743;28;102100;-73
2022/11/02 06:41:02;;;;;;;;;3.00;3.00;;;;;9.95;88.14;98952.91;4912602;28;104049;-75
2022/11/02 06:43:29;;;;;;;;;1.25;1.25;;;;;10.04;87.85;98954.50;4916479;28;103922;-74
2022/11/02 06:45:57;;;;;;;;;3.75;2.00;;;;;10.12;87.78;98954.38;4912115;28;102288;-81
2022/11/02 06:48:26;;;;;;;;;0.25;0.25;;;;;10.22;87.52;98954.94;4919402;28;101870;-75
2022/11/02 06:51:00;;;;;;;;;2.00;0.00;;;;;10.31;87.64;98956.50;4913669;28;110109;-75
2022/11/02 06:53:27;;;;;;;;;5.25;4.25;;;;;10.37;87.04;98958.44;4925153;28;102991;-75
2022/11/02 06:55:56;;;;;;;;;0.75;0.00;;;;;10.51;86.89;98965.66;4921551;28;101997;-74
2022/11/02 06:58:24;;;;;;;;;8.00;4.00;;;;;10.51;86.93;98964.81;4916011;28;102426;-74
2022/11/02 07:01:00;;;;;;;;;10.75;9.00;;;;;10.42;87.54;98979.50;4921672;28;103629;-74
2022/11/02 07:03:28;;;;;;;;;8.00;6.00;;;;;10.44;87.27;98975.59;4918507;28;102162;-75
2022/11/02 07:05:55;;;;;;;;;7.00;6.00;;;;;10.47;87.04;98974.34;4918820;28;103176;-76
2022/11/02 07:08:24;;;;;;;;;13.25;11.75;;;;;10.34;87.61;98976.91;4919272;28;102232;-75
2022/11/02 07:10:51;;;;;;;;;11.75;10.25;;;;;10.35;87.75;98976.72;4904724;28;104033;-75
2022/11/02 07:13:18;;;;;;;;;8.00;6.00;;;;;10.40;87.10;98981.56;4929489;28;102258;-74
2022/11/02 07:15:45;;;;;;;;;8.00;6.00;;;;;10.49;86.68;98978.53;4920341;28;102590;-74
2022/11/02 07:18:12;;;;;;;;;3.75;3.75;;;;;10.53;86.46;98974.44;4916767;28;102255;-75
2022/11/02 07:20:40;;;;;;;;;2.00;2.00;;;;;10.65;86.70;98978.31;4920334;28;110103;-74
2022/11/02 07:23:08;;;;;;;;;1.25;1.25;;;;;10.70;86.43;98986.69;4915545;28;102050;-74
2022/11/02 07:25:35;;;;;;;;;4.00;3.50;;;;;10.79;86.04;98979.28;4919642;28;101936;-74
2022/11/02 07:28:03;;;;;;;;;4.00;4.00;;;;;10.87;85.72;98986.41;4923593;28;102422;-74
2022/11/02 07:30:32;;;;;;;;;2.00;1.00;;;;;10.95;85.77;98984.41;4929393;28;108550;-75
2022/11/02 07:32:59;;;;;;;;;1.50;1.50;;;;;11.03;85.29;98984.25;4924649;28;102111;-75
2022/11/02 07:35:27;;;;;;;;;3.50;2.00;;;;;11.04;84.35;98988.66;4927721;28;101990;-75
2022/11/02 07:38:01;;;;;;;;;1.00;0.50;;;;;11.09;84.71;98988.91;4931437;28;103530;-75
2022/11/02 07:40:29;;;;;;;;;9.50;9.50;;;;;11.06;85.21;98989.31;4927362;28;103148;-75
2022/11/02 07:42:57;;;;;;;;;2.75;2.00;;;;;11.18;84.97;98976.06;4922648;28;102051;-75
2022/11/02 07:45:24;;;;;;;;;1.00;1.00;;;;;11.17;84.68;98958.16;4917651;28;102177;-75
2022/11/02 07:47:51;;;;;;;;;5.25;4.00;;;;;11.28;84.29;98979.28;4931315;28;102532;-75
2022/11/02 07:50:21;;;;;;;;;3.00;3.00;;;;;11.40;83.65;98972.28;4931080;28;104104;-75
2022/11/02 07:52:53;;;;;;;;;1.25;1.00;;;;;11.52;84.29;98980.72;4929089;28;102203;-75
2022/11/02 07:55:26;;;;;;;;;2.00;1.75;;;;;11.56;82.55;98976.59;4927361;28;102112;-75
2022/11/02 07:57:56;;;;;;;;;1.00;1.00;;;;;11.61;83.50;98982.25;4933854;28;102290;-75
2022/11/02 08:00:24;;;;;;;;;7.25;6.00;;;;;11.64;83.95;98985.38;4930808;28;104373;-75
2022/11/02 08:02:56;;;;;;;;;2.75;2.25;;;;;11.69;83.15;98982.09;4932902;28;102118;-75
2022/11/02 08:05:24;;;;;;;;;6.00;4.00;;;;;11.73;83.38;98987.97;4919402;28;102325;-74
2022/11/02 08:07:59;;;;;;;;;10.00;8.25;;;;;11.70;82.64;98981.06;4927079;28;102039;-75
2022/11/02 08:10:27;;;;;;;;;7.25;7.00;;;;;11.77;83.36;98970.28;4921601;28;103968;-75
2022/11/02 08:12:55;;;;;;;;;3.75;3.25;;;;;11.87;82.71;98973.47;4921329;28;102071;-75
2022/11/02 08:15:22;;;;;;;;;2.50;2.25;;;;;11.97;82.84;98973.94;4922377;28;102338;-75
2022/11/02 08:18:05;;;;;;;;;3.25;2.25;;;;;11.99;82.62;98967.28;4930109;28;102226;-75
2022/11/02 08:20:35;;;;;;;;;3.00;3.00;;;;;11.91;81.76;98948.47;4930214;28;109370;-76
2022/11/02 08:23:03;;;;;;;;;8.25;7.00;;;;;12.15;81.98;98970.69;4914994;28;101942;-76
2022/11/02 08:25:31;;;;;;;;;5.75;4.00;;;;;12.22;81.62;98972.38;4915155;28;102724;-76
2022/11/02 08:27:59;;;;;;;;;1.00;1.00;;;;;12.33;81.22;98971.81;4924484;28;102331;-75
2022/11/02 08:30:29;;;;;;;;;6.00;5.50;;;;;12.39;80.96;98967.41;4916901;28;102959;-75
2022/11/02 08:33:02;;;;;;;;;3.00;2.50;;;;;12.49;81.17;98967.88;4919100;28;102363;-76
2022/11/02 08:35:29;;;;;;;;;5.50;5.50;;;;;12.52;80.30;98971.00;4925145;28;102445;-75
2022/11/02 08:37:58;;;;;;;;;2.25;2.25;;;;;12.64;81.58;98970.44;4924643;28;102076;-76
2022/11/02 08:40:26;;;;;;;;;3.00;3.00;;;;;12.78;80.77;98972.97;4918899;28;104122;-75
2022/11/02 08:42:57;;;;;;;;;3.25;2.25;;;;;12.84;80.76;98955.00;4924392;28;102303;-76
2022/11/02 08:45:25;;;;;;;;;5.00;4.50;;;;;13.05;79.36;98967.56;4918394;28;102575;-76
2022/11/02 08:47:53;;;;;;;;;6.00;5.00;;;;;13.11;79.35;98964.88;4918013;28;102050;-75
2022/11/02 08:50:21;;;;;;;;;5.50;3.75;;;;;13.18;79.01;98963.03;4915655;28;104045;-76
2022/11/02 08:52:48;;;;;;;;;6.00;4.00;;;;;13.19;79.25;98953.81;4916144;28;102018;-75
2022/11/02 08:55:15;;;;;;;;;7.00;4.00;;;;;13.26;79.00;98967.41;4925814;28;102239;-75
2022/11/02 08:57:55;;;;;;;;;5.75;4.75;;;;;13.35;78.98;98961.53;4922320;28;102195;-74
2022/11/02 09:00:25;;;;;;;;;6.50;5.25;;;;;13.43;78.75;98957.75;4912254;28;105885;-76
2022/11/02 09:03:02;;;;;;;;;10.25;8.50;;;;;13.42;77.12;98955.28;4918312;28;102209;-75
2022/11/02 09:05:31;;;;;;;;;3.00;3.00;;;;;13.56;77.57;98951.47;4922758;28;102276;-75
2022/11/02 09:08:04;;;;;;;;;14.25;12.50;;;;;13.69;77.44;98946.00;4930085;28;102070;-75
2022/11/02 09:10:33;;;;;;;;;15.75;9.00;;;;;13.85;77.47;98945.56;4924083;28;108066;-75
2022/11/02 09:13:04;;;;;;;;;13.25;13.25;;;;;13.99;76.38;98944.47;4905734;28;102228;-75
2022/11/02 09:15:33;;;;;;;;;5.00;3.00;;;;;14.12;74.85;98944.44;4928191;28;102273;-75
2022/11/02 09:18:00;;;;;;;;;32.50;26.75;;;;;13.79;74.68;98943.69;4927718;28;102392;-76
2022/11/02 09:20:28;;;;;;;;;18.25;16.25;;;;;13.71;74.69;98927.63;4926212;28;104164;-75
2022/11/02 09:22:55;;;;;;;;;30.00;25.00;;;;;13.66;75.19;98944.56;4926288;28;104493;-75
2022/11/02 09:25:22;;;;;;;;;26.50;20.50;;;;;13.61;74.60;98946.25;4925869;28;102086;-75
2022/11/02 09:27:54;;;;;;;;;34.75;31.50;;;;;13.54;75.02;98931.84;4927348;28;102400;-75
2022/11/02 09:30:22;;;;;;;;;32.25;27.75;;;;;13.52;74.58;98937.50;4923593;28;104076;-74
2022/11/02 09:33:01;;;;;;;;;27.00;24.75;;;;;13.62;74.15;98939.78;4924620;28;102202;-75
2022/11/02 09:35:31;;;;;;;;;25.50;23.50;;;;;13.69;73.88;98932.44;4919530;28;102172;-75
2022/11/02 09:37:57;;;;;;;;;20.00;17.75;;;;;14.00;71.35;98931.72;4926952;28;102353;-74
2022/11/02 09:40:27;;;;;;;;;17.00;13.50;;;;;14.08;66.69;98932.31;4926034;28;104030;-74
2022/11/02 09:43:05;;;;;;;;;17.50;13.25;;;;;14.18;66.79;98932.66;4929618;28;102132;-75
2022/11/02 09:45:43;;;;;;;;;16.00;15.25;;;;;13.96;66.79;98934.03;4931410;28;102177;-75
2022/11/02 09:48:17;;;;;;;;;16.75;14.75;;;;;14.16;65.95;98929.34;4916713;28;102077;-76
2022/11/02 09:51:13;;;;;;;;;12.25;12.25;;;;;14.34;65.17;98938.69;4923305;28;104173;-74
2022/11/02 09:53:51;;;;;;;;;7.25;7.00;;;;;14.45;64.45;98935.31;4925698;28;103178;-75
2022/11/02 09:56:21;;;;;;;;;19.50;15.00;;;;;14.38;65.15;98937.22;4917971;28;102215;-75
2022/11/02 09:59:00;;;;;;;;;11.75;11.75;;;;;14.26;63.37;98907.13;4924659;28;102639;-75
2022/11/02 10:01:48;;;;;;;;;16.00;12.50;;;;;14.55;62.79;98938.38;4925796;28;103986;-75
2022/11/02 10:04:49;;;;;;;;;11.25;10.00;;;;;14.71;62.83;98932.44;4915791;28;102309;-74
2022/11/02 10:07:22;;;;;;;;;9.75;8.00;;;;;14.72;63.48;98934.91;4921654;28;102205;-74
2022/11/02 10:10:00;;;;;;;;;11.00;10.50;;;;;14.74;62.32;98915.66;4930652;28;102093;-75
2022/11/02 10:12:49;;;;;;;;;16.25;15.00;;;;;14.73;62.61;98941.19;4926379;28;103973;-75
2022/11/02 10:15:21;;;;;;;;;17.00;15.50;;;;;14.56;63.98;98932.72;4925033;28;102093;-73
2022/11/02 10:17:55;;;;;;;;;15.50;15.00;;;;;14.79;63.23;98937.63;4921628;28;102166;-73
2022/11/02 10:20:28;;;;;;;;;16.00;15.00;;;;;14.96;62.71;98944.19;4925027;28;102158;-73
2022/11/02 10:23:02;;;;;;;;;12.75;11.75;;;;;14.58;63.68;98940.69;4919486;28;103337;-73
2022/11/02 10:25:29;;;;;;;;;10.50;10.50;;;;;14.72;62.55;98945.00;4916697;28;102338;-73
2022/11/02 10:28:10;;;;;;;;;15.25;15.25;;;;;14.69;62.61;98942.69;4917023;28;101892;-73
2022/11/02 10:30:39;;;;;;;;;18.75;15.75;;;;;14.64;62.81;98937.91;4917078;28;102275;-72
2022/11/02 10:33:19;;;;;;;;;16.50;13.00;;;;;14.79;61.98;98945.78;4920021;28;104128;-72
2022/11/02 10:35:52;;;;;;;;;14.25;14.00;;;;;14.83;61.89;98944.28;4898632;28;102200;-73
2022/11/02 10:38:56;;;;;;;;;16.00;13.25;;;;;14.83;61.61;98941.56;4913974;28;102365;-73
2022/11/02 10:41:48;;;;;;;;;11.50;10.00;;;;;14.94;62.13;98937.31;4927809;28;102508;-74
2022/11/02 10:44:47;;;;;;;;;12.25;12.25;;;;;14.93;61.97;98944.63;4915549;28;108809;-73
2022/11/02 10:47:18;;;;;;;;;15.75;12.00;;;;;14.96;61.87;98929.72;4877757;28;102398;-73
2022/11/02 10:49:48;;;;;;;;;15.00;13.25;;;;;15.21;61.28;98932.47;4928287;28;102190;-73
2022/11/02 10:52:17;;;;;;;;;11.75;11.00;;;;;15.21;59.84;98927.03;4918021;28;104081;-73
2022/11/02 10:54:44;;;;;;;;;8.00;7.50;;;;;15.16;59.53;98920.38;4925158;28;104238;-73
2022/11/02 10:57:13;;;;;;;;;11.75;10.75;;;;;14.99;59.15;98921.16;4910870;28;102151;-73
2022/11/02 10:59:40;;;;;;;;;14.00;12.75;;;;;15.18;58.71;98920.13;4921468;28;104943;-72
2022/11/02 11:02:12;;;;;;;;;13.25;10.25;;;;;15.15;59.13;98918.69;4913584;28;103159;-73
2022/11/02 11:04:41;;;;;;;;;10.50;8.75;;;;;15.08;58.12;98912.44;4921000;28;104212;-72
2022/11/02 11:07:20;;;;;;;;;11.00;9.00;;;;;15.09;58.26;98902.38;4922603;28;102341;-72
2022/11/02 11:09:53;;;;;;;;;12.75;12.00;;;;;15.31;57.56;98920.00;4918266;28;101974;-73
2022/11/02 11:12:29;;;;;;;;;10.25;9.25;;;;;15.38;57.10;98915.34;4935121;28;102416;-72
2022/11/02 11:14:59;;;;;;;;;12.25;10.75;;;;;15.22;56.94;98912.38;4920451;28;103887;-73
2022/11/02 11:17:46;;;;;;;;;12.25;10.00;;;;;15.40;57.57;98901.50;4920051;28;101996;-73
2022/11/02 11:20:36;;;;;;;;;9.00;9.00;;;;;15.61;57.67;98917.47;4916605;28;102221;-73
2022/11/02 11:23:21;;;;;;;;;10.75;10.00;;;;;15.35;56.81;98917.69;4923497;28;102599;-74
2022/11/02 11:26:01;;;;;;;;;9.25;7.25;;;;;15.55;57.92;98910.16;4916887;28;108621;-73
2022/11/02 11:28:29;;;;;;;;;8.00;7.00;;;;;15.57;57.74;98910.78;4918072;28;102337;-74
2022/11/02 11:31:07;;;;;;;;;11.50;10.50;;;;;15.53;56.69;98920.47;4915900;28;102076;-73
2022/11/02 11:33:56;;;;;;;;;13.00;11.00;;;;;15.53;55.98;98917.75;4919416;28;102105;-72
2022/11/02 11:36:35;;;;;;;;;8.50;7.75;;;;;15.61;57.09;98912.00;4918067;28;108636;-74
2022/11/02 11:39:21;;;;;;;;;10.00;10.00;;;;;15.67;56.19;98913.81;4911730;28;102248;-74
2022/11/02 11:41:48;;;;;;;;;11.00;9.75;;;;;15.72;56.50;98916.69;4918048;28;101894;-74
2022/11/02 11:44:15;;;;;;;;;12.50;10.75;;;;;15.77;56.42;98908.66;4930301;28;106221;-73
2022/11/02 11:46:47;;;;;;;;;10.00;9.75;;;;;15.49;56.99;98913.78;4920777;28;104071;-73
2022/11/02 11:49:30;;;;;;;;;15.00;13.00;;;;;15.56;56.51;98914.56;4921717;28;102581;-73
2022/11/02 11:52:26;;;;;;;;;11.75;11.00;;;;;15.60;57.65;98910.34;4922133;28;102127;-72
2022/11/02 11:55:19;;;;;;;;;8.25;7.50;;;;;15.76;57.49;98914.38;4930609;28;102383;-73
2022/11/02 11:58:12;;;;;;;;;9.75;8.00;;;;;16.04;55.99;98906.47;4920184;28;108884;-73
2022/11/02 12:00:39;;;;;;;;;7.25;7.00;;;;;15.77;56.19;98903.22;4923752;28;102356;-73
2022/11/02 12:03:09;;;;;;;;;12.00;11.00;;;;;15.74;56.46;98906.41;4926685;28;102063;-70